A- A+ FrançaisEnglishEspañol中国

le plus proche LFPO Paris-Orly LFBT Tarbes-Lourdes-PyrénéesLFCS Bordeaux-Leognan-SaucatsLFGZ Nuits-Saint-Georges

manche à air

La météo aéronautique pour les pilotes, la préparation du vol avec les METAR (METeorological Aerodrome Report, message d'observation des conditions météorologiques pour l'aviation) et Les TAF (Terminal Aerodrome Forecast : message de prévision à court terme des conditions météorologiques pour l'aviation). Et les autres ressources comme les VAC (Visual Approch Chart) et les NOTAM (Notice To Airman) pour préprer les vols.

Aéroport Lloydminster (Canada) / OACI CYLL/ IATA YLL

L'altitude de l'aéroport Lloydminster est de 668 m=2192 ft. Il est situé à proximité de Lloydminster (Canada). La météo générale à 5 jours est disponible pour Lloydminster situé à 5.5 km.

METAR de l'aéroport Lloydminster - CYLL

CYLL 141155Z AUTO 35006KT 9SM -RA SCT004 BKN013 OVC037 01/01 A2980 RMK SLP115

Décodage du METAR de l'aéroport Lloydminster (CA)

METAR émis par CYLL le lundi 14 octobre 2019 à 11:55 heure TU. C'est un METAR généré automatiquement. Attention ce METAR est obsolète car il a été émis il y a 10 heure et 51 minutes.

La visibilité est de 14.5 km=9 sm.

La température est de 1°C=34 °F et le point rosée est de 1°C=34 °F . Ce qui correspond à 100% d'humidité relative.

Le QNH est de 1009 hPa=29.8 inHg

Vent de 6 kt=11 km/h, orienté à 350°.

Nuages : Nuages épars à 400 ft=120 mètres. Couverture nuageuse fragmentée à 1300 ft=400 mètres. Couverture nuageuse soudée à 3700 ft=1130 mètres.

-RA

RMK SLP115

TAF de l'aéroport Lloydminster - CYLL

CYLL 140932Z 1409/1418 34006KT P6SM -RA SCT005 BKN020 OVC040 TEMPO 1409/1414 4SM -RASN BR BKN005 OVC020 FM141400 03008KT P6SM -RASN BKN015 OVC030 TEMPO 1414/1418 2SM -SN OVC006 RMK FCST BASED ON AUTO OBS. NXT FCST BY 141200Z

CYLL 140932Z 1409/1418 34006KT P6SM faible RA nuages épars à 005 couverture nuageuse fragmentée à 020 couverture nuageuse soudée à 040 temporairement 1409/1414 4SM faible RASN brume couverture nuageuse fragmentée à 005 couverture nuageuse soudée à 020 FM141400 03008KT P6SM faible RASN couverture nuageuse fragmentée à 015 couverture nuageuse soudée à 030 temporairement 1414/1418 2SM faible SN couverture nuageuse soudée à 006 remarques trombe ST BASED ON AUTO OBS. NXT trombe ST BY 141200Z

Aéroport à proximité de Lloydminster

Météo générale à 5 jours à Lloydminster (5.5 km)CYVG Aéroport Vermillion (50 km)CYWV Aéroport Wainwright (77 km)CYBF Aéroport Bonnyville (119 km)CYOD Aéroport Cold Lake (123 km)CYQW Aéroport North Battleford (136 km)CYLJ Aéroport Meadow Lake (137 km)

Vue aérienne de l'aéroport Lloydminster

NOTAM de l'aéroport Lloydminster

Les NOTAM sont fournis sans aucune garantie de leur actualité. Le pilote est le seul responsable de la vérification de sa validité avant de l'utiliser opérationnellement pour préparer un vol ou l'utiliser lors de sa navigation.

Pas de NOTAM

Sources des données